createdAt,value
2019-04-07T00:00:12.407Z,23.23
2019-04-07T00:02:43.244Z,23.43
2019-04-07T00:05:14.923Z,25.50
2019-04-07T00:07:45.999Z,26.97
2019-04-07T00:10:17.270Z,29.80
2019-04-07T00:12:48.478Z,28.13
2019-04-07T00:15:19.439Z,31.50
2019-04-07T00:17:50.779Z,24.50
2019-04-07T00:20:22.049Z,27.60
2019-04-07T00:22:53.867Z,37.40
2019-04-07T00:25:25.090Z,34.93
2019-04-07T00:27:56.772Z,38.37
2019-04-07T00:30:27.347Z,32.57
2019-04-07T00:32:59.751Z,35.20
2019-04-07T00:35:32.616Z,35.23
2019-04-07T00:38:02.842Z,26.13
2019-04-07T00:40:33.835Z,32.87
2019-04-07T00:43:04.623Z,33.20
2019-04-07T00:45:35.409Z,28.87
2019-04-07T00:48:05.986Z,34.50
2019-04-07T00:50:36.791Z,33.70
2019-04-07T00:53:07.745Z,33.67
2019-04-07T00:55:38.676Z,34.00
2019-04-07T00:58:09.294Z,36.83
2019-04-07T01:00:42.327Z,30.53
2019-04-07T01:03:13.664Z,38.80
2019-04-07T01:05:44.414Z,31.87
2019-04-07T01:08:15.544Z,26.70
2019-04-07T01:10:46.002Z,26.90
2019-04-07T01:13:16.774Z,34.13
2019-04-07T01:15:47.307Z,29.50
2019-04-07T01:18:18.164Z,26.73
2019-04-07T01:20:49.305Z,27.10
2019-04-07T01:23:20.958Z,26.53
2019-04-07T01:25:52.256Z,23.73
2019-04-07T01:28:23.027Z,29.47
2019-04-07T01:30:54.271Z,21.83
2019-04-07T01:33:25.576Z,23.53
2019-04-07T01:35:57.236Z,25.70
2019-04-07T01:38:28.190Z,28.57
2019-04-07T01:41:12.674Z,25.23
2019-04-07T01:43:48.216Z,26.60
2019-04-07T01:46:40.516Z,29.07
2019-04-07T01:49:27.267Z,28.13
2019-04-07T01:52:26.258Z,26.70
2019-04-07T01:55:25.701Z,32.43
2019-04-07T01:58:15.140Z,31.57
2019-04-07T02:01:11.171Z,30.67
2019-04-07T02:04:07.010Z,32.33
2019-04-07T02:06:47.501Z,30.47
2019-04-07T02:09:44.420Z,29.57
2019-04-07T02:12:33.624Z,35.37
2019-04-07T02:15:29.375Z,28.17
2019-04-07T02:18:22.460Z,33.00
2019-04-07T02:21:14.340Z,31.97
2019-04-07T02:24:10.252Z,29.23
2019-04-07T02:26:59.661Z,28.57
2019-04-07T02:29:37.393Z,27.07
2019-04-07T02:32:31.278Z,27.23
2019-04-07T02:35:09.858Z,28.07
2019-04-07T02:37:48.312Z,28.23
2019-04-07T02:40:38.380Z,29.10
2019-04-07T02:43:31.052Z,25.10
2019-04-07T02:46:39.444Z,23.13
2019-04-07T02:49:19.973Z,25.70
2019-04-07T02:52:09.107Z,30.13
2019-04-07T02:55:05.106Z,28.00
2019-04-07T02:57:44.570Z,29.00
2019-04-07T03:00:25.484Z,24.37
2019-04-07T03:03:14.099Z,29.40
2019-04-07T03:05:49.624Z,28.90
2019-04-07T03:08:30.259Z,30.13
2019-04-07T03:11:21.428Z,26.00
2019-04-07T03:14:10.916Z,23.33
2019-04-07T03:17:02.550Z,21.70
2019-04-07T03:19:52.138Z,22.17
2019-04-07T03:22:40.667Z,21.13
2019-04-07T03:25:28.250Z,26.67
2019-04-07T03:28:27.239Z,22.43
2019-04-07T03:31:24.012Z,23.27
2019-04-07T03:34:25.614Z,24.57
2019-04-07T03:37:29.758Z,25.10
2019-04-07T03:40:08.391Z,24.33
2019-04-07T03:43:07.061Z,24.67
2019-04-07T03:46:00.338Z,26.30
2019-04-07T03:48:35.547Z,28.70
2019-04-07T03:51:24.365Z,30.30
2019-04-07T03:54:21.018Z,30.77
2019-04-07T03:57:11.219Z,29.47
2019-04-07T04:00:07.093Z,29.77
2019-04-07T04:03:00.376Z,32.93
2019-04-07T04:05:51.334Z,33.07
2019-04-07T04:08:55.978Z,35.20
2019-04-07T04:11:34.264Z,30.57
2019-04-07T04:14:22.686Z,32.97
2019-04-07T04:16:54.344Z,35.07
2019-04-07T04:19:27.019Z,33.47
2019-04-07T04:21:57.320Z,34.53
2019-04-07T04:24:28.414Z,35.37
2019-04-07T04:26:59.232Z,32.03
2019-04-07T04:29:29.982Z,33.57
2019-04-07T04:32:01.518Z,33.43
2019-04-07T04:34:32.931Z,49.00
2019-04-07T04:37:04.635Z,53.07
2019-04-07T04:39:35.566Z,68.70
2019-04-07T04:42:07.071Z,41.63
2019-04-07T04:44:38.781Z,39.27
2019-04-07T04:47:10.229Z,41.27
2019-04-07T04:49:41.701Z,39.37
2019-04-07T04:52:12.420Z,39.53
2019-04-07T04:54:43.328Z,44.70
2019-04-07T04:57:14.324Z,38.67
2019-04-07T04:59:45.471Z,38.67
2019-04-07T05:02:17.141Z,35.60
2019-04-07T05:04:47.770Z,39.07
2019-04-07T05:07:19.004Z,39.93
2019-04-07T05:09:52.720Z,38.00
2019-04-07T05:12:21.986Z,36.60
2019-04-07T05:14:52.644Z,41.77
2019-04-07T05:17:25.262Z,43.43
2019-04-07T05:19:56.611Z,38.67
2019-04-07T05:22:27.938Z,37.17
2019-04-07T05:24:58.522Z,41.13
2019-04-07T05:27:29.317Z,41.17
2019-04-07T05:30:00.277Z,41.13
2019-04-07T05:32:35.630Z,35.73
2019-04-07T05:35:07.694Z,37.90
2019-04-07T05:37:38.622Z,42.33
2019-04-07T05:40:10.128Z,35.97
2019-04-07T05:42:40.613Z,35.60
2019-04-07T05:45:11.626Z,34.70
2019-04-07T05:47:47.318Z,35.17
2019-04-07T05:50:14.527Z,28.17
2019-04-07T05:52:45.015Z,29.03
2019-04-07T05:55:15.577Z,28.13
2019-04-07T05:57:47.341Z,29.90
2019-04-07T06:00:18.861Z,34.33
2019-04-07T06:02:49.543Z,27.47
2019-04-07T06:05:20.024Z,33.07
2019-04-07T06:07:51.417Z,25.70
2019-04-07T06:10:26.462Z,26.73
2019-04-07T06:12:55.353Z,29.77
2019-04-07T06:15:26.281Z,30.10
2019-04-07T06:18:00.552Z,32.17
2019-04-07T06:20:29.097Z,33.23
2019-04-07T06:23:00.377Z,28.93
2019-04-07T06:25:36.872Z,32.80
2019-04-07T06:28:03.414Z,30.60
2019-04-07T06:30:35.915Z,31.77
2019-04-07T06:33:07.277Z,32.33
2019-04-07T06:35:38.030Z,27.30
2019-04-07T06:38:09.034Z,30.47
2019-04-07T06:40:40.669Z,27.20
2019-04-07T06:43:11.321Z,26.57
2019-04-07T06:45:49.057Z,30.90
2019-04-07T06:48:20.040Z,29.57
2019-04-07T06:51:05.056Z,30.50
2019-04-07T06:53:54.531Z,28.37
2019-04-07T06:56:39.015Z,28.97
2019-04-07T06:59:27.332Z,29.27
2019-04-07T07:02:19.674Z,24.60
2019-04-07T07:05:06.027Z,26.17
2019-04-07T07:07:50.964Z,32.10
2019-04-07T07:10:43.569Z,25.47
2019-04-07T07:13:36.777Z,27.27
2019-04-07T07:16:20.677Z,29.67
2019-04-07T07:19:02.134Z,31.27
2019-04-07T07:21:43.715Z,23.20
2019-04-07T07:24:18.409Z,23.47
2019-04-07T07:26:47.952Z,24.07
2019-04-07T07:29:19.064Z,29.00
2019-04-07T07:31:52.217Z,27.37
2019-04-07T07:34:23.274Z,25.23
2019-04-07T07:36:56.844Z,31.93
2019-04-07T07:39:27.202Z,27.87
2019-04-07T07:41:58.437Z,23.23
2019-04-07T07:44:31.269Z,51.00
2019-04-07T07:47:02.636Z,36.70
2019-04-07T07:49:37.069Z,33.03
2019-04-07T07:52:07.211Z,30.37
2019-04-07T07:54:38.616Z,27.03
2019-04-07T07:57:11.052Z,25.67
2019-04-07T07:59:42.129Z,30.57
2019-04-07T08:02:14.605Z,28.87
2019-04-07T08:04:45.341Z,32.13
2019-04-07T08:07:16.650Z,29.40
2019-04-07T08:09:49.136Z,30.87
2019-04-07T08:12:19.665Z,32.17
2019-04-07T08:14:53.965Z,29.77
2019-04-07T08:17:22.609Z,28.87
2019-04-07T08:19:53.309Z,33.10
2019-04-07T08:22:29.983Z,35.97
2019-04-07T08:24:56.059Z,35.17
2019-04-07T08:27:31.201Z,34.37
2019-04-07T08:29:59.667Z,31.67
2019-04-07T08:32:32.218Z,37.63
2019-04-07T08:35:05.301Z,35.20
2019-04-07T08:37:35.229Z,35.40
2019-04-07T08:40:07.696Z,31.67
2019-04-07T08:42:39.182Z,36.60
2019-04-07T08:45:09.975Z,30.30
2019-04-07T08:47:40.675Z,33.70
2019-04-07T08:50:11.543Z,35.90
2019-04-07T08:52:43.847Z,33.70
2019-04-07T08:55:15.029Z,39.53
2019-04-07T08:57:47.331Z,34.23
2019-04-07T09:00:21.406Z,38.70
2019-04-07T09:03:01.758Z,35.67
2019-04-07T09:05:28.829Z,35.83
2019-04-07T09:07:57.385Z,35.67
2019-04-07T09:10:34.478Z,33.73
2019-04-07T09:13:08.505Z,35.77
2019-04-07T09:16:04.727Z,35.13
2019-04-07T09:19:00.617Z,38.60
2019-04-07T09:21:50.477Z,35.13
2019-04-07T09:24:38.223Z,36.53
2019-04-07T09:27:19.467Z,40.77
2019-04-07T09:30:09.968Z,38.37
2019-04-07T09:33:06.034Z,36.43
2019-04-07T09:35:56.738Z,36.93
2019-04-07T09:38:35.464Z,33.67
2019-04-07T09:41:27.403Z,33.97
2019-04-07T09:44:05.158Z,32.67
2019-04-07T09:46:55.014Z,33.83
2019-04-07T09:49:48.811Z,33.23
2019-04-07T09:52:49.295Z,31.13
2019-04-07T09:55:37.854Z,31.43
2019-04-07T09:58:26.688Z,34.90
2019-04-07T10:01:29.697Z,31.97
2019-04-07T10:04:08.283Z,34.30
2019-04-07T10:06:56.739Z,26.53
2019-04-07T10:10:04.625Z,24.67
2019-04-07T10:12:48.957Z,21.30
2019-04-07T10:15:44.606Z,25.87
2019-04-07T10:18:42.980Z,29.13
2019-04-07T10:21:45.733Z,31.47
2019-04-07T10:24:39.349Z,25.67
2019-04-07T10:27:36.840Z,22.83
2019-04-07T10:30:31.595Z,26.13
2019-04-07T10:33:12.348Z,25.23
2019-04-07T10:36:09.232Z,26.37
2019-04-07T10:38:57.740Z,32.40
2019-04-07T10:41:50.750Z,36.67
2019-04-07T10:44:32.407Z,30.30
2019-04-07T10:47:21.241Z,32.23
2019-04-07T10:50:08.455Z,47.23
2019-04-07T10:52:47.250Z,40.90
2019-04-07T10:55:40.605Z,33.47
2019-04-07T10:58:33.368Z,36.07
2019-04-07T11:01:25.754Z,39.37
2019-04-07T11:04:04.883Z,42.20
2019-04-07T11:06:53.658Z,47.83
2019-04-07T11:09:42.774Z,42.93
2019-04-07T11:12:32.994Z,40.03
2019-04-07T11:15:21.393Z,38.30
2019-04-07T11:18:09.736Z,43.27
2019-04-07T11:21:02.371Z,44.43
2019-04-07T11:23:41.438Z,46.53
2019-04-07T11:26:30.105Z,41.73
2019-04-07T11:29:13.315Z,51.43
2019-04-07T11:31:57.359Z,43.30
2019-04-07T11:34:43.306Z,43.63
2019-04-07T11:37:33.499Z,58.03
2019-04-07T11:40:22.666Z,43.27
2019-04-07T11:43:07.008Z,39.13
2019-04-07T11:46:15.215Z,39.03
2019-04-07T11:48:59.039Z,43.80
2019-04-07T11:51:52.369Z,49.07
2019-04-07T11:54:53.918Z,51.27
2019-04-07T11:57:43.334Z,43.03
2019-04-07T12:00:31.418Z,48.03
2019-04-07T12:03:35.929Z,41.33
2019-04-07T12:06:24.120Z,36.83
2019-04-07T12:09:13.455Z,42.23
2019-04-07T12:12:06.916Z,40.93
2019-04-07T12:14:54.642Z,41.83
2019-04-07T12:17:50.282Z,42.83
2019-04-07T12:20:30.955Z,41.60
2019-04-07T12:23:07.186Z,44.80
2019-04-07T12:26:02.128Z,39.07
2019-04-07T12:28:56.024Z,43.27
2019-04-07T12:31:54.717Z,39.67
2019-04-07T12:34:50.899Z,53.30
2019-04-07T12:37:49.846Z,32.23
2019-04-07T12:40:40.201Z,33.33
2019-04-07T12:43:23.036Z,29.27
2019-04-07T12:46:21.903Z,29.73
2019-04-07T12:49:17.612Z,31.80
2019-04-07T12:51:57.369Z,28.83
2019-04-07T12:54:50.357Z,30.03
2019-04-07T12:57:39.429Z,30.23
2019-04-07T13:00:53.086Z,30.20
2019-04-07T13:03:27.815Z,28.80
2019-04-07T13:06:09.265Z,36.57
2019-04-07T13:08:57.165Z,31.40
2019-04-07T13:12:00.861Z,27.77
2019-04-07T13:14:57.941Z,25.17
2019-04-07T13:17:45.171Z,32.57
2019-04-07T13:20:23.238Z,26.70
2019-04-07T13:23:01.629Z,29.67
2019-04-07T13:26:09.567Z,32.17
2019-04-07T13:29:05.323Z,29.33
2019-04-07T13:31:59.114Z,29.43
2019-04-07T13:34:56.695Z,27.93
2019-04-07T13:37:36.746Z,32.37
2019-04-07T13:40:30.574Z,25.23
2019-04-07T13:43:20.122Z,30.90
2019-04-07T13:46:20.605Z,31.33
2019-04-07T13:49:01.947Z,28.53
2019-04-07T13:52:02.432Z,30.20
2019-04-07T13:54:42.285Z,29.97
2019-04-07T13:57:38.172Z,28.47
2019-04-07T14:00:27.372Z,28.10
2019-04-07T14:03:16.874Z,26.57
2019-04-07T14:06:06.912Z,29.00
2019-04-07T14:08:52.576Z,32.60
2019-04-07T14:11:56.463Z,32.43
2019-04-07T14:14:37.256Z,28.37
2019-04-07T14:17:43.795Z,30.03
2019-04-07T14:20:33.267Z,26.77
2019-04-07T14:23:24.022Z,27.13
2019-04-07T14:26:04.539Z,24.03
2019-04-07T14:29:01.955Z,27.57
2019-04-07T14:31:54.505Z,30.63
2019-04-07T14:34:50.979Z,25.30
2019-04-07T14:37:38.331Z,25.50
2019-04-07T14:40:17.278Z,24.63
2019-04-07T14:43:12.422Z,24.03
2019-04-07T14:46:08.831Z,19.53
2019-04-07T14:49:01.477Z,21.80
2019-04-07T14:52:06.774Z,21.33
2019-04-07T14:55:13.017Z,23.17
2019-04-07T14:58:02.800Z,18.23
2019-04-07T15:00:50.870Z,21.63
2019-04-07T15:03:23.442Z,21.37
2019-04-07T15:05:56.351Z,22.30
2019-04-07T15:08:35.523Z,21.33
2019-04-07T15:11:25.881Z,25.70
2019-04-07T15:13:58.751Z,19.47
2019-04-07T15:16:29.169Z,19.13
2019-04-07T15:18:59.908Z,17.70
2019-04-07T15:21:30.414Z,18.43
2019-04-07T15:24:04.038Z,18.00
2019-04-07T15:26:33.685Z,18.03
2019-04-07T15:29:08.058Z,18.10
2019-04-07T15:31:38.516Z,19.47
2019-04-07T15:34:11.730Z,18.47
2019-04-07T15:36:42.813Z,15.80
2019-04-07T15:39:13.530Z,17.87
2019-04-07T15:41:45.467Z,15.80
2019-04-07T15:44:16.860Z,15.30
2019-04-07T15:46:52.354Z,14.90
2019-04-07T15:49:20.490Z,16.57
2019-04-07T15:51:52.240Z,16.03
2019-04-07T15:54:24.216Z,16.93
2019-04-07T15:56:57.949Z,15.03
2019-04-07T15:59:29.796Z,19.33
2019-04-07T16:02:01.282Z,14.60
2019-04-07T16:04:33.116Z,13.03
2019-04-07T16:07:04.578Z,15.37
2019-04-07T16:09:44.495Z,18.17
2019-04-07T16:12:08.052Z,16.27
2019-04-07T16:14:40.267Z,15.20
2019-04-07T16:17:12.122Z,15.27
2019-04-07T16:19:45.404Z,14.03
2019-04-07T16:22:15.485Z,13.67
2019-04-07T16:24:47.532Z,12.93
2019-04-07T16:27:19.280Z,15.50
2019-04-07T16:29:50.354Z,15.50
2019-04-07T16:32:21.937Z,12.10
2019-04-07T16:34:53.126Z,11.03
2019-04-07T16:37:23.687Z,10.70
2019-04-07T16:39:54.507Z,14.03
2019-04-07T16:42:26.596Z,13.03
2019-04-07T16:44:58.271Z,12.53
2019-04-07T16:47:34.545Z,12.07
2019-04-07T16:50:02.035Z,14.17
2019-04-07T16:52:34.041Z,14.60
2019-04-07T16:55:06.466Z,14.20
2019-04-07T16:57:38.732Z,18.93
2019-04-07T17:00:14.335Z,13.00
2019-04-07T17:02:46.133Z,13.80
2019-04-07T17:05:21.434Z,12.13
2019-04-07T17:07:50.848Z,14.17
2019-04-07T17:10:21.537Z,14.70
2019-04-07T17:12:52.518Z,13.60
2019-04-07T17:15:23.518Z,15.13
2019-04-07T17:17:56.951Z,11.33
2019-04-07T17:20:28.415Z,13.77
2019-04-07T17:23:00.395Z,13.03
2019-04-07T17:25:33.266Z,14.53
2019-04-07T17:28:05.016Z,15.23
2019-04-07T17:30:38.406Z,20.20
2019-04-07T17:33:08.934Z,18.60
2019-04-07T17:35:43.217Z,13.77
2019-04-07T17:38:13.082Z,15.10
2019-04-07T17:40:49.241Z,17.77
2019-04-07T17:43:59.007Z,16.40
2019-04-07T17:46:45.962Z,18.33
2019-04-07T17:49:35.789Z,19.90
2019-04-07T17:52:41.336Z,16.80
2019-04-07T17:55:34.221Z,17.40
2019-04-07T17:58:39.943Z,19.27
2019-04-07T18:01:36.327Z,16.90
2019-04-07T18:04:34.755Z,16.53
2019-04-07T18:07:23.564Z,21.40
2019-04-07T18:10:16.611Z,28.50
2019-04-07T18:13:06.361Z,28.47
2019-04-07T18:15:51.727Z,19.87
2019-04-07T18:18:36.634Z,16.63
2019-04-07T18:21:16.837Z,17.17
2019-04-07T18:24:06.441Z,19.50
2019-04-07T18:26:46.837Z,25.00
2019-04-07T18:29:29.527Z,26.97
2019-04-07T18:32:12.133Z,23.40
2019-04-07T18:34:58.446Z,25.07
2019-04-07T18:37:44.209Z,39.93
2019-04-07T18:40:38.191Z,36.17
2019-04-07T18:43:21.390Z,33.73
2019-04-07T18:46:07.200Z,31.57
2019-04-07T18:49:01.173Z,39.37
2019-04-07T18:51:58.075Z,34.50
2019-04-07T18:54:47.722Z,35.50
2019-04-07T18:57:33.834Z,40.87
2019-04-07T19:00:31.634Z,39.27
2019-04-07T19:03:11.886Z,42.83
2019-04-07T19:05:58.556Z,41.67
2019-04-07T19:08:55.064Z,35.53
2019-04-07T19:11:34.167Z,46.45
2019-04-07T19:14:33.565Z,40.13
2019-04-07T19:17:01.591Z,43.93
2019-04-07T19:19:46.711Z,41.97
2019-04-07T19:22:36.714Z,47.57
2019-04-07T19:25:29.153Z,48.60
2019-04-07T19:28:15.683Z,40.83
2019-04-07T19:31:08.647Z,49.23
2019-04-07T19:34:04.800Z,53.80
2019-04-07T19:36:49.865Z,56.93
2019-04-07T19:39:42.632Z,69.73
2019-04-07T19:42:39.956Z,71.43
2019-04-07T19:45:37.620Z,76.60
2019-04-07T19:48:30.908Z,75.10
2019-04-07T19:51:12.505Z,85.60
2019-04-07T19:54:02.649Z,91.27
2019-04-07T19:56:50.662Z,78.83
2019-04-07T19:59:46.513Z,72.93
2019-04-07T20:02:42.516Z,77.03
2019-04-07T20:05:32.287Z,61.73
2019-04-07T20:08:22.899Z,69.47
2019-04-07T20:11:12.719Z,62.60
2019-04-07T20:14:18.696Z,77.67
2019-04-07T20:16:56.105Z,86.20
2019-04-07T20:19:57.879Z,90.37
2019-04-07T20:23:06.437Z,79.40
2019-04-07T20:25:54.316Z,77.97
2019-04-07T20:28:43.558Z,77.60
2019-04-07T20:31:39.680Z,80.80
2019-04-07T20:34:36.507Z,79.27
2019-04-07T20:37:11.609Z,78.47
2019-04-07T20:40:00.312Z,67.40
2019-04-07T20:42:41.291Z,66.07
2019-04-07T20:45:37.384Z,76.80
2019-04-07T20:48:22.592Z,82.13
2019-04-07T20:51:06.142Z,74.97
2019-04-07T20:54:05.591Z,83.20
2019-04-07T20:56:55.517Z,75.83
2019-04-07T20:59:50.057Z,78.07
2019-04-07T21:02:46.807Z,76.00
2019-04-07T21:05:46.250Z,82.20
2019-04-07T21:08:26.031Z,86.63
2019-04-07T21:11:13.109Z,72.33
2019-04-07T21:13:52.487Z,80.67
2019-04-07T21:16:41.325Z,92.50
2019-04-07T21:19:25.707Z,76.87
2019-04-07T21:22:21.756Z,71.13
2019-04-07T21:25:29.658Z,65.30
2019-04-07T21:28:18.244Z,73.63
2019-04-07T21:30:57.773Z,57.90
2019-04-07T21:33:56.922Z,64.77
2019-04-07T21:36:41.513Z,71.70
2019-04-07T21:39:34.453Z,60.57
2019-04-07T21:42:36.742Z,69.70
2019-04-07T21:45:29.423Z,71.37
2019-04-07T21:48:28.698Z,71.37
2019-04-07T21:51:29.036Z,51.53
2019-04-07T21:54:38.959Z,54.37
2019-04-07T21:57:17.302Z,46.83
2019-04-07T22:00:10.484Z,55.03
2019-04-07T22:03:15.839Z,62.50
2019-04-07T22:06:02.695Z,60.50
2019-04-07T22:08:56.044Z,65.93
2019-04-07T22:11:30.036Z,59.37
2019-04-07T22:13:59.209Z,68.43
2019-04-07T22:16:31.871Z,66.33
2019-04-07T22:19:02.421Z,66.30
2019-04-07T22:21:34.240Z,67.47
2019-04-07T22:24:04.997Z,65.47
2019-04-07T22:26:37.015Z,60.27
2019-04-07T22:29:07.741Z,61.57
2019-04-07T22:31:47.957Z,61.70
2019-04-07T22:34:18.657Z,59.37
2019-04-07T22:36:50.461Z,69.93
2019-04-07T22:39:21.050Z,66.70
2019-04-07T22:41:52.541Z,63.67
2019-04-07T22:44:24.409Z,72.43
2019-04-07T22:46:55.260Z,61.37
2019-04-07T22:49:30.829Z,57.10
2019-04-07T22:51:58.739Z,65.47
2019-04-07T22:54:30.956Z,66.57
2019-04-07T22:57:02.773Z,64.33
2019-04-07T22:59:34.273Z,67.87
2019-04-07T23:02:05.412Z,71.17
2019-04-07T23:04:36.394Z,67.40
2019-04-07T23:07:06.959Z,73.80
2019-04-07T23:09:37.720Z,70.13
2019-04-07T23:12:08.648Z,63.40
2019-04-07T23:14:40.127Z,77.27
2019-04-07T23:17:12.071Z,67.17
2019-04-07T23:19:43.201Z,80.93
2019-04-07T23:22:14.089Z,65.00
2019-04-07T23:24:45.302Z,70.07
2019-04-07T23:27:16.487Z,70.80
2019-04-07T23:29:47.336Z,66.77
2019-04-07T23:32:18.023Z,59.17
2019-04-07T23:34:48.581Z,61.47
2019-04-07T23:37:19.584Z,76.13
2019-04-07T23:39:50.342Z,71.47
2019-04-07T23:42:21.000Z,70.87
2019-04-07T23:44:53.164Z,70.57
2019-04-07T23:47:23.734Z,78.13
2019-04-07T23:49:54.506Z,78.90
2019-04-07T23:52:25.209Z,69.03
2019-04-07T23:54:56.625Z,76.27
2019-04-07T23:57:27.552Z,80.17
2019-04-07T23:59:59.580Z,85.37
